sensor_id;sensor_type;location;lat;lon;timestamp;P1;durP1;ratioP1;P2;durP2;ratioP2
26908;SDS011;14477;51.038;4.588;2023-03-23T00:02:22;5.13;;;2.72;;
26908;SDS011;14477;51.038;4.588;2023-03-23T00:04:57;3.50;;;2.50;;
26908;SDS011;14477;51.038;4.588;2023-03-23T00:07:25;3.70;;;2.30;;
26908;SDS011;14477;51.038;4.588;2023-03-23T00:09:53;3.42;;;2.40;;
26908;SDS011;14477;51.038;4.588;2023-03-23T00:12:23;3.28;;;2.40;;
26908;SDS011;14477;51.038;4.588;2023-03-23T00:15:06;3.58;;;2.58;;
26908;SDS011;14477;51.038;4.588;2023-03-23T00:17:37;3.28;;;2.30;;
26908;SDS011;14477;51.038;4.588;2023-03-23T00:20:04;4.10;;;2.57;;
26908;SDS011;14477;51.038;4.588;2023-03-23T00:22:32;4.22;;;2.58;;
26908;SDS011;14477;51.038;4.588;2023-03-23T00:25:02;3.70;;;2.58;;
26908;SDS011;14477;51.038;4.588;2023-03-23T00:27:29;5.78;;;2.92;;
26908;SDS011;14477;51.038;4.588;2023-03-23T00:29:54;5.47;;;3.10;;
26908;SDS011;14477;51.038;4.588;2023-03-23T00:32:22;5.47;;;2.90;;
26908;SDS011;14477;51.038;4.588;2023-03-23T00:34:52;5.07;;;2.80;;
26908;SDS011;14477;51.038;4.588;2023-03-23T00:37:18;4.60;;;2.58;;
26908;SDS011;14477;51.038;4.588;2023-03-23T00:39:44;4.40;;;2.67;;
26908;SDS011;14477;51.038;4.588;2023-03-23T00:42:14;4.15;;;2.80;;
26908;SDS011;14477;51.038;4.588;2023-03-23T00:44:41;5.10;;;3.40;;
26908;SDS011;14477;51.038;4.588;2023-03-23T00:47:09;6.22;;;3.00;;
26908;SDS011;14477;51.038;4.588;2023-03-23T00:49:35;3.65;;;2.60;;
26908;SDS011;14477;51.038;4.588;2023-03-23T00:52:02;4.53;;;3.03;;
26908;SDS011;14477;51.038;4.588;2023-03-23T00:54:30;4.82;;;3.00;;
26908;SDS011;14477;51.038;4.588;2023-03-23T00:56:56;4.38;;;2.90;;
26908;SDS011;14477;51.038;4.588;2023-03-23T00:59:22;4.10;;;2.90;;
26908;SDS011;14477;51.038;4.588;2023-03-23T01:01:48;4.87;;;3.10;;
26908;SDS011;14477;51.038;4.588;2023-03-23T01:04:14;4.20;;;2.88;;
26908;SDS011;14477;51.038;4.588;2023-03-23T01:06:41;3.50;;;2.40;;
26908;SDS011;14477;51.038;4.588;2023-03-23T01:09:10;3.35;;;2.50;;
26908;SDS011;14477;51.038;4.588;2023-03-23T01:11:39;5.03;;;2.77;;
26908;SDS011;14477;51.038;4.588;2023-03-23T01:14:09;3.60;;;2.50;;
26908;SDS011;14477;51.038;4.588;2023-03-23T01:16:35;3.75;;;2.67;;
26908;SDS011;14477;51.038;4.588;2023-03-23T01:19:01;4.10;;;2.50;;
26908;SDS011;14477;51.038;4.588;2023-03-23T01:21:27;3.20;;;2.20;;
26908;SDS011;14477;51.038;4.588;2023-03-23T01:23:53;4.68;;;2.53;;
26908;SDS011;14477;51.038;4.588;2023-03-23T01:26:20;3.93;;;2.57;;
26908;SDS011;14477;51.038;4.588;2023-03-23T01:28:48;3.08;;;2.22;;
26908;SDS011;14477;51.038;4.588;2023-03-23T01:31:18;3.33;;;2.28;;
26908;SDS011;14477;51.038;4.588;2023-03-23T01:33:46;3.67;;;2.28;;
26908;SDS011;14477;51.038;4.588;2023-03-23T01:36:14;3.93;;;2.17;;
26908;SDS011;14477;51.038;4.588;2023-03-23T01:38:42;3.53;;;2.30;;
26908;SDS011;14477;51.038;4.588;2023-03-23T01:41:09;4.38;;;2.92;;
26908;SDS011;14477;51.038;4.588;2023-03-23T01:43:36;3.85;;;2.53;;
26908;SDS011;14477;51.038;4.588;2023-03-23T01:46:18;3.58;;;2.47;;
26908;SDS011;14477;51.038;4.588;2023-03-23T01:48:43;4.53;;;2.63;;
26908;SDS011;14477;51.038;4.588;2023-03-23T01:51:13;4.07;;;2.67;;
26908;SDS011;14477;51.038;4.588;2023-03-23T01:53:44;4.28;;;2.80;;
26908;SDS011;14477;51.038;4.588;2023-03-23T01:56:16;4.53;;;2.60;;
26908;SDS011;14477;51.038;4.588;2023-03-23T01:58:45;3.83;;;2.60;;
26908;SDS011;14477;51.038;4.588;2023-03-23T02:01:12;4.03;;;2.55;;
26908;SDS011;14477;51.038;4.588;2023-03-23T02:03:40;4.78;;;2.88;;
26908;SDS011;14477;51.038;4.588;2023-03-23T02:06:09;4.28;;;2.85;;
26908;SDS011;14477;51.038;4.588;2023-03-23T02:08:34;3.77;;;2.40;;
26908;SDS011;14477;51.038;4.588;2023-03-23T02:11:01;3.47;;;2.38;;
26908;SDS011;14477;51.038;4.588;2023-03-23T02:13:37;3.30;;;2.10;;
26908;SDS011;14477;51.038;4.588;2023-03-23T02:16:14;3.30;;;2.57;;
26908;SDS011;14477;51.038;4.588;2023-03-23T02:35:39;4.53;;;2.40;;
26908;SDS011;14477;51.038;4.588;2023-03-23T02:38:10;3.47;;;2.20;;
26908;SDS011;14477;51.038;4.588;2023-03-23T02:40:42;4.95;;;2.20;;
26908;SDS011;14477;51.038;4.588;2023-03-23T02:43:12;4.07;;;2.40;;
26908;SDS011;14477;51.038;4.588;2023-03-23T02:45:40;3.92;;;2.13;;
26908;SDS011;14477;51.038;4.588;2023-03-23T02:48:08;3.92;;;2.10;;
26908;SDS011;14477;51.038;4.588;2023-03-23T02:50:36;3.33;;;1.63;;
26908;SDS011;14477;51.038;4.588;2023-03-23T02:53:03;2.88;;;1.75;;
26908;SDS011;14477;51.038;4.588;2023-03-23T02:55:33;3.23;;;1.63;;
26908;SDS011;14477;51.038;4.588;2023-03-23T02:58:01;2.33;;;1.60;;
26908;SDS011;14477;51.038;4.588;2023-03-23T03:00:27;2.30;;;1.50;;
26908;SDS011;14477;51.038;4.588;2023-03-23T03:02:53;3.85;;;1.40;;
26908;SDS011;14477;51.038;4.588;2023-03-23T03:10:52;2.28;;;1.23;;
26908;SDS011;14477;51.038;4.588;2023-03-23T03:16:40;2.45;;;1.30;;
26908;SDS011;14477;51.038;4.588;2023-03-23T03:21:40;2.00;;;1.20;;
26908;SDS011;14477;51.038;4.588;2023-03-23T03:24:08;1.85;;;1.05;;
26908;SDS011;14477;51.038;4.588;2023-03-23T03:26:38;1.88;;;1.05;;
26908;SDS011;14477;51.038;4.588;2023-03-23T03:29:10;3.45;;;1.23;;
26908;SDS011;14477;51.038;4.588;2023-03-23T03:31:37;3.92;;;1.30;;
26908;SDS011;14477;51.038;4.588;2023-03-23T03:34:06;1.53;;;0.90;;
26908;SDS011;14477;51.038;4.588;2023-03-23T03:36:32;1.50;;;0.98;;
26908;SDS011;14477;51.038;4.588;2023-03-23T03:39:06;3.90;;;1.25;;
26908;SDS011;14477;51.038;4.588;2023-03-23T03:41:34;2.25;;;1.10;;
26908;SDS011;14477;51.038;4.588;2023-03-23T03:44:02;3.85;;;1.10;;
26908;SDS011;14477;51.038;4.588;2023-03-23T03:46:28;2.03;;;1.10;;
26908;SDS011;14477;51.038;4.588;2023-03-23T03:48:56;2.30;;;1.02;;
26908;SDS011;14477;51.038;4.588;2023-03-23T03:51:23;1.58;;;0.90;;
26908;SDS011;14477;51.038;4.588;2023-03-23T03:53:50;3.75;;;1.10;;
26908;SDS011;14477;51.038;4.588;2023-03-23T03:56:15;3.03;;;1.00;;
26908;SDS011;14477;51.038;4.588;2023-03-23T03:58:41;2.75;;;1.40;;
26908;SDS011;14477;51.038;4.588;2023-03-23T04:01:08;3.78;;;1.13;;
26908;SDS011;14477;51.038;4.588;2023-03-23T04:03:37;1.83;;;1.03;;
26908;SDS011;14477;51.038;4.588;2023-03-23T04:06:03;2.85;;;0.90;;
26908;SDS011;14477;51.038;4.588;2023-03-23T04:08:30;1.75;;;0.90;;
26908;SDS011;14477;51.038;4.588;2023-03-23T04:10:57;2.03;;;0.88;;
26908;SDS011;14477;51.038;4.588;2023-03-23T04:13:22;3.40;;;1.00;;
26908;SDS011;14477;51.038;4.588;2023-03-23T04:15:48;3.65;;;1.10;;
26908;SDS011;14477;51.038;4.588;2023-03-23T04:18:14;2.78;;;1.10;;
26908;SDS011;14477;51.038;4.588;2023-03-23T04:20:43;3.47;;;1.27;;
26908;SDS011;14477;51.038;4.588;2023-03-23T04:23:12;2.90;;;1.17;;
26908;SDS011;14477;51.038;4.588;2023-03-23T04:25:50;2.10;;;1.08;;
26908;SDS011;14477;51.038;4.588;2023-03-23T04:28:18;2.28;;;1.20;;
26908;SDS011;14477;51.038;4.588;2023-03-23T04:30:48;1.67;;;1.08;;
26908;SDS011;14477;51.038;4.588;2023-03-23T04:33:18;3.70;;;1.20;;
26908;SDS011;14477;51.038;4.588;2023-03-23T04:35:44;4.25;;;1.38;;
26908;SDS011;14477;51.038;4.588;2023-03-23T04:38:15;2.40;;;1.10;;
26908;SDS011;14477;51.038;4.588;2023-03-23T04:40:42;3.63;;;1.25;;
26908;SDS011;14477;51.038;4.588;2023-03-23T04:43:09;3.63;;;1.17;;
26908;SDS011;14477;51.038;4.588;2023-03-23T04:45:37;3.10;;;1.30;;
26908;SDS011;14477;51.038;4.588;2023-03-23T04:48:06;3.33;;;1.10;;
26908;SDS011;14477;51.038;4.588;2023-03-23T04:50:33;5.22;;;1.33;;
26908;SDS011;14477;51.038;4.588;2023-03-23T04:53:00;3.63;;;1.20;;
26908;SDS011;14477;51.038;4.588;2023-03-23T04:55:29;3.65;;;1.25;;
26908;SDS011;14477;51.038;4.588;2023-03-23T04:58:02;4.80;;;1.20;;
26908;SDS011;14477;51.038;4.588;2023-03-23T05:00:28;2.78;;;1.15;;
26908;SDS011;14477;51.038;4.588;2023-03-23T05:02:54;3.13;;;1.20;;
26908;SDS011;14477;51.038;4.588;2023-03-23T05:05:20;2.20;;;0.90;;
26908;SDS011;14477;51.038;4.588;2023-03-23T05:07:47;2.65;;;0.98;;
26908;SDS011;14477;51.038;4.588;2023-03-23T05:10:14;3.58;;;1.30;;
26908;SDS011;14477;51.038;4.588;2023-03-23T05:12:41;3.88;;;1.02;;
26908;SDS011;14477;51.038;4.588;2023-03-23T05:15:08;2.67;;;0.90;;
26908;SDS011;14477;51.038;4.588;2023-03-23T05:17:35;3.90;;;0.98;;
26908;SDS011;14477;51.038;4.588;2023-03-23T05:20:01;4.45;;;1.17;;
26908;SDS011;14477;51.038;4.588;2023-03-23T05:22:30;2.85;;;0.90;;
26908;SDS011;14477;51.038;4.588;2023-03-23T05:24:57;3.28;;;0.90;;
26908;SDS011;14477;51.038;4.588;2023-03-23T05:27:24;2.57;;;1.30;;
26908;SDS011;14477;51.038;4.588;2023-03-23T05:29:53;2.45;;;1.02;;
26908;SDS011;14477;51.038;4.588;2023-03-23T05:32:18;2.92;;;1.00;;
26908;SDS011;14477;51.038;4.588;2023-03-23T05:34:44;3.23;;;1.10;;
26908;SDS011;14477;51.038;4.588;2023-03-23T05:37:11;4.05;;;1.00;;
26908;SDS011;14477;51.038;4.588;2023-03-23T05:39:39;2.83;;;0.98;;
26908;SDS011;14477;51.038;4.588;2023-03-23T05:42:05;2.67;;;1.00;;
26908;SDS011;14477;51.038;4.588;2023-03-23T05:44:31;2.83;;;1.00;;
26908;SDS011;14477;51.038;4.588;2023-03-23T05:46:57;3.38;;;1.13;;
26908;SDS011;14477;51.038;4.588;2023-03-23T05:49:22;2.20;;;0.98;;
26908;SDS011;14477;51.038;4.588;2023-03-23T05:51:49;3.43;;;1.10;;
26908;SDS011;14477;51.038;4.588;2023-03-23T05:54:15;2.55;;;0.90;;
26908;SDS011;14477;51.038;4.588;2023-03-23T05:56:41;3.70;;;1.30;;
26908;SDS011;14477;51.038;4.588;2023-03-23T05:59:07;3.00;;;1.05;;
26908;SDS011;14477;51.038;4.588;2023-03-23T06:01:33;3.67;;;1.10;;
26908;SDS011;14477;51.038;4.588;2023-03-23T06:03:59;3.25;;;1.00;;
26908;SDS011;14477;51.038;4.588;2023-03-23T06:06:25;2.78;;;1.10;;
26908;SDS011;14477;51.038;4.588;2023-03-23T06:08:51;3.47;;;1.10;;
26908;SDS011;14477;51.038;4.588;2023-03-23T06:11:18;2.22;;;1.00;;
26908;SDS011;14477;51.038;4.588;2023-03-23T06:13:44;3.22;;;1.10;;
26908;SDS011;14477;51.038;4.588;2023-03-23T06:16:10;2.83;;;1.20;;
26908;SDS011;14477;51.038;4.588;2023-03-23T06:18:35;2.63;;;1.07;;
26908;SDS011;14477;51.038;4.588;2023-03-23T06:21:04;4.72;;;1.40;;
26908;SDS011;14477;51.038;4.588;2023-03-23T06:23:31;2.65;;;1.23;;
26908;SDS011;14477;51.038;4.588;2023-03-23T06:25:57;3.83;;;1.10;;
26908;SDS011;14477;51.038;4.588;2023-03-23T06:28:30;2.25;;;1.00;;
26908;SDS011;14477;51.038;4.588;2023-03-23T06:31:03;3.38;;;1.20;;
26908;SDS011;14477;51.038;4.588;2023-03-23T06:33:35;1.98;;;1.10;;
26908;SDS011;14477;51.038;4.588;2023-03-23T06:36:01;2.47;;;1.20;;
26908;SDS011;14477;51.038;4.588;2023-03-23T06:38:27;2.50;;;1.30;;
26908;SDS011;14477;51.038;4.588;2023-03-23T06:40:53;2.88;;;1.00;;
26908;SDS011;14477;51.038;4.588;2023-03-23T06:43:20;3.83;;;1.30;;
26908;SDS011;14477;51.038;4.588;2023-03-23T06:45:46;4.10;;;1.23;;
26908;SDS011;14477;51.038;4.588;2023-03-23T06:48:12;2.90;;;1.40;;
26908;SDS011;14477;51.038;4.588;2023-03-23T06:50:38;3.67;;;1.13;;
26908;SDS011;14477;51.038;4.588;2023-03-23T06:53:06;2.25;;;0.90;;
26908;SDS011;14477;51.038;4.588;2023-03-23T06:55:32;1.77;;;0.60;;
26908;SDS011;14477;51.038;4.588;2023-03-23T06:57:58;0.85;;;0.55;;
26908;SDS011;14477;51.038;4.588;2023-03-23T07:00:26;0.70;;;0.50;;
26908;SDS011;14477;51.038;4.588;2023-03-23T07:02:52;0.75;;;0.60;;
26908;SDS011;14477;51.038;4.588;2023-03-23T07:05:18;0.80;;;0.50;;
26908;SDS011;14477;51.038;4.588;2023-03-23T07:07:44;0.63;;;0.50;;
26908;SDS011;14477;51.038;4.588;2023-03-23T07:10:10;0.77;;;0.50;;
26908;SDS011;14477;51.038;4.588;2023-03-23T07:12:36;0.88;;;0.50;;
26908;SDS011;14477;51.038;4.588;2023-03-23T07:15:03;1.20;;;0.65;;
26908;SDS011;14477;51.038;4.588;2023-03-23T07:17:30;0.63;;;0.50;;
26908;SDS011;14477;51.038;4.588;2023-03-23T07:19:56;1.23;;;0.40;;
26908;SDS011;14477;51.038;4.588;2023-03-23T07:22:22;1.10;;;0.70;;
26908;SDS011;14477;51.038;4.588;2023-03-23T07:24:47;1.50;;;0.50;;
26908;SDS011;14477;51.038;4.588;2023-03-23T07:27:13;1.23;;;0.50;;
26908;SDS011;14477;51.038;4.588;2023-03-23T07:29:39;1.10;;;0.50;;
26908;SDS011;14477;51.038;4.588;2023-03-23T07:32:05;0.60;;;0.47;;
26908;SDS011;14477;51.038;4.588;2023-03-23T07:34:33;0.65;;;0.65;;
26908;SDS011;14477;51.038;4.588;2023-03-23T07:36:59;1.40;;;0.50;;
26908;SDS011;14477;51.038;4.588;2023-03-23T07:39:25;0.90;;;0.40;;
26908;SDS011;14477;51.038;4.588;2023-03-23T07:41:51;0.60;;;0.40;;
26908;SDS011;14477;51.038;4.588;2023-03-23T07:44:17;1.38;;;0.40;;
26908;SDS011;14477;51.038;4.588;2023-03-23T07:46:42;0.93;;;0.50;;
26908;SDS011;14477;51.038;4.588;2023-03-23T07:49:08;0.70;;;0.40;;
26908;SDS011;14477;51.038;4.588;2023-03-23T07:51:35;1.20;;;0.50;;
26908;SDS011;14477;51.038;4.588;2023-03-23T07:54:03;0.60;;;0.40;;
26908;SDS011;14477;51.038;4.588;2023-03-23T07:56:29;0.83;;;0.53;;
26908;SDS011;14477;51.038;4.588;2023-03-23T07:58:55;1.90;;;0.65;;
26908;SDS011;14477;51.038;4.588;2023-03-23T08:01:21;1.52;;;0.50;;
26908;SDS011;14477;51.038;4.588;2023-03-23T08:03:49;2.22;;;0.60;;
26908;SDS011;14477;51.038;4.588;2023-03-23T08:06:15;1.27;;;0.60;;
26908;SDS011;14477;51.038;4.588;2023-03-23T08:08:41;1.20;;;0.50;;
26908;SDS011;14477;51.038;4.588;2023-03-23T08:11:07;0.70;;;0.50;;
26908;SDS011;14477;51.038;4.588;2023-03-23T08:13:32;1.40;;;0.70;;
26908;SDS011;14477;51.038;4.588;2023-03-23T08:15:59;1.15;;;0.50;;
26908;SDS011;14477;51.038;4.588;2023-03-23T08:18:28;1.05;;;0.50;;
26908;SDS011;14477;51.038;4.588;2023-03-23T08:20:55;1.58;;;0.65;;
26908;SDS011;14477;51.038;4.588;2023-03-23T08:23:20;1.13;;;0.60;;
26908;SDS011;14477;51.038;4.588;2023-03-23T08:25:47;0.80;;;0.70;;
26908;SDS011;14477;51.038;4.588;2023-03-23T08:28:13;1.38;;;0.80;;
26908;SDS011;14477;51.038;4.588;2023-03-23T08:30:39;0.90;;;0.70;;
26908;SDS011;14477;51.038;4.588;2023-03-23T08:33:06;1.40;;;0.80;;
26908;SDS011;14477;51.038;4.588;2023-03-23T08:35:33;1.52;;;0.70;;
26908;SDS011;14477;51.038;4.588;2023-03-23T08:37:59;1.48;;;0.70;;
26908;SDS011;14477;51.038;4.588;2023-03-23T08:40:25;1.20;;;0.60;;
26908;SDS011;14477;51.038;4.588;2023-03-23T08:42:51;1.85;;;0.80;;
26908;SDS011;14477;51.038;4.588;2023-03-23T08:45:19;2.25;;;0.80;;
26908;SDS011;14477;51.038;4.588;2023-03-23T08:47:47;1.45;;;0.80;;
26908;SDS011;14477;51.038;4.588;2023-03-23T08:50:22;1.77;;;0.80;;
26908;SDS011;14477;51.038;4.588;2023-03-23T08:52:50;1.20;;;0.70;;
26908;SDS011;14477;51.038;4.588;2023-03-23T08:55:16;2.58;;;0.80;;
26908;SDS011;14477;51.038;4.588;2023-03-23T08:57:43;2.83;;;0.88;;
26908;SDS011;14477;51.038;4.588;2023-03-23T09:00:10;1.83;;;0.73;;
26908;SDS011;14477;51.038;4.588;2023-03-23T09:02:48;3.03;;;0.90;;
26908;SDS011;14477;51.038;4.588;2023-03-23T09:05:16;2.83;;;0.93;;
26908;SDS011;14477;51.038;4.588;2023-03-23T09:07:44;1.73;;;0.70;;
26908;SDS011;14477;51.038;4.588;2023-03-23T09:10:12;2.15;;;0.80;;
26908;SDS011;14477;51.038;4.588;2023-03-23T09:12:39;1.55;;;0.80;;
26908;SDS011;14477;51.038;4.588;2023-03-23T09:15:06;1.33;;;0.70;;
26908;SDS011;14477;51.038;4.588;2023-03-23T09:17:41;0.98;;;0.70;;
26908;SDS011;14477;51.038;4.588;2023-03-23T09:20:10;2.58;;;0.88;;
26908;SDS011;14477;51.038;4.588;2023-03-23T09:22:42;1.13;;;0.77;;
26908;SDS011;14477;51.038;4.588;2023-03-23T09:25:10;2.60;;;0.70;;
26908;SDS011;14477;51.038;4.588;2023-03-23T09:27:41;2.70;;;0.93;;
26908;SDS011;14477;51.038;4.588;2023-03-23T09:30:11;2.20;;;0.90;;
26908;SDS011;14477;51.038;4.588;2023-03-23T09:32:39;2.22;;;0.80;;
26908;SDS011;14477;51.038;4.588;2023-03-23T09:35:06;1.63;;;0.70;;
26908;SDS011;14477;51.038;4.588;2023-03-23T09:37:38;1.90;;;0.90;;
26908;SDS011;14477;51.038;4.588;2023-03-23T09:40:06;1.60;;;0.80;;
26908;SDS011;14477;51.038;4.588;2023-03-23T09:42:48;1.08;;;0.73;;
26908;SDS011;14477;51.038;4.588;2023-03-23T09:52:01;1.80;;;0.70;;
26908;SDS011;14477;51.038;4.588;2023-03-23T09:54:05;2.10;;;0.65;;
26908;SDS011;14477;51.038;4.588;2023-03-23T09:56:50;1.38;;;0.70;;
26908;SDS011;14477;51.038;4.588;2023-03-23T10:04:51;1.73;;;0.87;;
26908;SDS011;14477;51.038;4.588;2023-03-23T10:07:20;1.27;;;0.70;;
26908;SDS011;14477;51.038;4.588;2023-03-23T10:09:53;1.73;;;0.80;;
26908;SDS011;14477;51.038;4.588;2023-03-23T10:12:25;1.23;;;0.80;;
26908;SDS011;14477;51.038;4.588;2023-03-23T10:17:40;1.07;;;0.80;;
26908;SDS011;14477;51.038;4.588;2023-03-23T10:23:13;1.98;;;0.90;;
26908;SDS011;14477;51.038;4.588;2023-03-23T10:26:04;2.42;;;1.10;;
26908;SDS011;14477;51.038;4.588;2023-03-23T10:28:39;2.55;;;1.08;;
26908;SDS011;14477;51.038;4.588;2023-03-23T10:31:13;1.93;;;0.97;;
26908;SDS011;14477;51.038;4.588;2023-03-23T10:33:50;1.55;;;1.00;;
26908;SDS011;14477;51.038;4.588;2023-03-23T10:36:26;1.58;;;1.23;;
26908;SDS011;14477;51.038;4.588;2023-03-23T10:41:39;2.20;;;0.95;;
26908;SDS011;14477;51.038;4.588;2023-03-23T10:44:14;2.27;;;1.00;;
26908;SDS011;14477;51.038;4.588;2023-03-23T10:47:07;3.63;;;1.40;;
26908;SDS011;14477;51.038;4.588;2023-03-23T10:52:36;3.08;;;0.90;;
26908;SDS011;14477;51.038;4.588;2023-03-23T10:57:36;2.47;;;0.90;;
26908;SDS011;14477;51.038;4.588;2023-03-23T11:03:04;2.78;;;1.13;;
26908;SDS011;14477;51.038;4.588;2023-03-23T11:05:43;2.90;;;1.15;;
26908;SDS011;14477;51.038;4.588;2023-03-23T11:08:22;2.35;;;1.10;;
26908;SDS011;14477;51.038;4.588;2023-03-23T11:10:51;2.23;;;1.10;;
26908;SDS011;14477;51.038;4.588;2023-03-23T11:13:18;3.22;;;1.00;;
26908;SDS011;14477;51.038;4.588;2023-03-23T11:15:46;2.25;;;1.15;;
26908;SDS011;14477;51.038;4.588;2023-03-23T11:18:19;2.88;;;1.30;;
26908;SDS011;14477;51.038;4.588;2023-03-23T11:20:48;3.72;;;1.40;;
26908;SDS011;14477;51.038;4.588;2023-03-23T11:23:28;2.43;;;1.10;;
26908;SDS011;14477;51.038;4.588;2023-03-23T11:26:08;2.90;;;1.10;;
26908;SDS011;14477;51.038;4.588;2023-03-23T11:28:58;2.63;;;1.30;;
26908;SDS011;14477;51.038;4.588;2023-03-23T11:31:52;4.22;;;1.38;;
26908;SDS011;14477;51.038;4.588;2023-03-23T11:34:31;2.83;;;1.33;;
26908;SDS011;14477;51.038;4.588;2023-03-23T11:39:30;2.20;;;1.08;;
26908;SDS011;14477;51.038;4.588;2023-03-23T11:41:58;3.15;;;1.23;;
26908;SDS011;14477;51.038;4.588;2023-03-23T11:44:34;4.22;;;1.27;;
26908;SDS011;14477;51.038;4.588;2023-03-23T11:47:27;4.07;;;1.20;;
26908;SDS011;14477;51.038;4.588;2023-03-23T11:55:08;3.60;;;1.20;;
26908;SDS011;14477;51.038;4.588;2023-03-23T11:57:38;3.08;;;1.10;;
26908;SDS011;14477;51.038;4.588;2023-03-23T12:00:17;3.30;;;1.10;;
26908;SDS011;14477;51.038;4.588;2023-03-23T12:05:43;2.70;;;1.20;;
26908;SDS011;14477;51.038;4.588;2023-03-23T12:11:28;2.93;;;1.37;;
26908;SDS011;14477;51.038;4.588;2023-03-23T12:14:15;3.42;;;1.48;;
26908;SDS011;14477;51.038;4.588;2023-03-23T12:19:21;4.90;;;1.40;;
26908;SDS011;14477;51.038;4.588;2023-03-23T12:25:39;2.73;;;1.20;;
26908;SDS011;14477;51.038;4.588;2023-03-23T12:27:51;4.13;;;1.25;;
26908;SDS011;14477;51.038;4.588;2023-03-23T12:39:05;2.80;;;1.10;;
26908;SDS011;14477;51.038;4.588;2023-03-23T12:42:00;3.22;;;1.17;;
26908;SDS011;14477;51.038;4.588;2023-03-23T12:44:48;2.92;;;1.20;;
26908;SDS011;14477;51.038;4.588;2023-03-23T12:47:25;3.15;;;1.23;;
26908;SDS011;14477;51.038;4.588;2023-03-23T12:58:30;4.18;;;1.30;;
26908;SDS011;14477;51.038;4.588;2023-03-23T13:01:04;3.25;;;1.10;;
26908;SDS011;14477;51.038;4.588;2023-03-23T13:09:27;3.65;;;1.20;;
26908;SDS011;14477;51.038;4.588;2023-03-23T13:11:53;3.65;;;1.00;;
26908;SDS011;14477;51.038;4.588;2023-03-23T13:22:41;3.75;;;1.30;;
26908;SDS011;14477;51.038;4.588;2023-03-23T13:25:31;3.15;;;1.13;;
26908;SDS011;14477;51.038;4.588;2023-03-23T13:28:12;4.60;;;1.10;;
26908;SDS011;14477;51.038;4.588;2023-03-23T13:30:59;3.10;;;1.00;;
26908;SDS011;14477;51.038;4.588;2023-03-23T13:33:37;2.10;;;1.10;;
26908;SDS011;14477;51.038;4.588;2023-03-23T13:36:04;5.82;;;1.30;;
26908;SDS011;14477;51.038;4.588;2023-03-23T13:38:35;3.65;;;1.25;;
26908;SDS011;14477;51.038;4.588;2023-03-23T13:41:08;2.97;;;1.20;;
26908;SDS011;14477;51.038;4.588;2023-03-23T13:43:37;4.05;;;1.15;;
26908;SDS011;14477;51.038;4.588;2023-03-23T13:48:46;2.20;;;1.20;;
26908;SDS011;14477;51.038;4.588;2023-03-23T14:01:51;3.90;;;1.20;;
26908;SDS011;14477;51.038;4.588;2023-03-23T14:04:19;3.20;;;1.20;;
26908;SDS011;14477;51.038;4.588;2023-03-23T14:06:46;3.15;;;1.20;;
26908;SDS011;14477;51.038;4.588;2023-03-23T14:09:18;2.45;;;1.00;;
26908;SDS011;14477;51.038;4.588;2023-03-23T14:11:54;5.07;;;1.10;;
26908;SDS011;14477;51.038;4.588;2023-03-23T14:14:31;3.90;;;0.90;;
26908;SDS011;14477;51.038;4.588;2023-03-23T14:17:11;2.83;;;1.00;;
26908;SDS011;14477;51.038;4.588;2023-03-23T14:19:38;2.60;;;0.90;;
26908;SDS011;14477;51.038;4.588;2023-03-23T14:22:14;5.38;;;1.42;;
26908;SDS011;14477;51.038;4.588;2023-03-23T14:24:49;4.30;;;1.30;;
26908;SDS011;14477;51.038;4.588;2023-03-23T14:27:20;4.00;;;1.30;;
26908;SDS011;14477;51.038;4.588;2023-03-23T14:30:05;4.32;;;1.08;;
26908;SDS011;14477;51.038;4.588;2023-03-23T14:32:33;4.40;;;1.38;;
26908;SDS011;14477;51.038;4.588;2023-03-23T14:35:01;3.83;;;1.00;;
26908;SDS011;14477;51.038;4.588;2023-03-23T14:37:32;2.80;;;1.00;;
26908;SDS011;14477;51.038;4.588;2023-03-23T14:40:00;2.90;;;0.90;;
26908;SDS011;14477;51.038;4.588;2023-03-23T14:42:30;2.47;;;0.93;;
26908;SDS011;14477;51.038;4.588;2023-03-23T14:45:00;2.63;;;1.00;;
26908;SDS011;14477;51.038;4.588;2023-03-23T14:47:33;4.32;;;1.10;;
26908;SDS011;14477;51.038;4.588;2023-03-23T14:50:04;2.50;;;1.10;;
26908;SDS011;14477;51.038;4.588;2023-03-23T14:52:35;3.53;;;1.05;;
26908;SDS011;14477;51.038;4.588;2023-03-23T14:55:11;3.22;;;1.00;;
26908;SDS011;14477;51.038;4.588;2023-03-23T14:57:46;3.55;;;1.20;;
26908;SDS011;14477;51.038;4.588;2023-03-23T15:00:17;3.25;;;1.10;;
26908;SDS011;14477;51.038;4.588;2023-03-23T15:02:59;3.80;;;1.10;;
26908;SDS011;14477;51.038;4.588;2023-03-23T15:05:38;3.78;;;1.00;;
26908;SDS011;14477;51.038;4.588;2023-03-23T15:08:29;5.47;;;1.30;;
26908;SDS011;14477;51.038;4.588;2023-03-23T15:11:20;3.55;;;1.30;;
26908;SDS011;14477;51.038;4.588;2023-03-23T15:13:53;4.75;;;1.40;;
26908;SDS011;14477;51.038;4.588;2023-03-23T15:16:27;4.67;;;1.10;;
26908;SDS011;14477;51.038;4.588;2023-03-23T15:18:58;3.78;;;1.10;;
26908;SDS011;14477;51.038;4.588;2023-03-23T15:21:38;3.53;;;1.33;;
26908;SDS011;14477;51.038;4.588;2023-03-23T15:25:02;3.53;;;1.00;;
26908;SDS011;14477;51.038;4.588;2023-03-23T15:27:14;2.60;;;1.00;;
26908;SDS011;14477;51.038;4.588;2023-03-23T15:29:53;2.90;;;1.00;;
26908;SDS011;14477;51.038;4.588;2023-03-23T15:32:29;4.18;;;1.20;;
26908;SDS011;14477;51.038;4.588;2023-03-23T15:34:57;3.28;;;1.20;;
26908;SDS011;14477;51.038;4.588;2023-03-23T15:37:29;4.05;;;1.10;;
26908;SDS011;14477;51.038;4.588;2023-03-23T15:39:57;4.65;;;1.20;;
26908;SDS011;14477;51.038;4.588;2023-03-23T15:42:31;3.27;;;1.00;;
26908;SDS011;14477;51.038;4.588;2023-03-23T15:50:12;5.13;;;1.48;;
26908;SDS011;14477;51.038;4.588;2023-03-23T15:53:12;5.40;;;1.65;;
26908;SDS011;14477;51.038;4.588;2023-03-23T15:55:46;5.77;;;1.70;;
26908;SDS011;14477;51.038;4.588;2023-03-23T15:58:12;3.38;;;1.65;;
26908;SDS011;14477;51.038;4.588;2023-03-23T16:00:39;4.03;;;1.40;;
26908;SDS011;14477;51.038;4.588;2023-03-23T16:03:09;3.70;;;1.30;;
26908;SDS011;14477;51.038;4.588;2023-03-23T16:05:39;4.90;;;1.60;;
26908;SDS011;14477;51.038;4.588;2023-03-23T16:08:07;5.38;;;1.52;;
26908;SDS011;14477;51.038;4.588;2023-03-23T16:10:35;3.78;;;1.50;;
26908;SDS011;14477;51.038;4.588;2023-03-23T16:13:01;4.53;;;1.50;;
26908;SDS011;14477;51.038;4.588;2023-03-23T16:15:29;4.47;;;1.57;;
26908;SDS011;14477;51.038;4.588;2023-03-23T16:17:55;4.15;;;2.20;;
26908;SDS011;14477;51.038;4.588;2023-03-23T16:20:21;4.30;;;1.93;;
26908;SDS011;14477;51.038;4.588;2023-03-23T16:22:48;4.75;;;1.73;;
26908;SDS011;14477;51.038;4.588;2023-03-23T16:25:15;4.13;;;1.55;;
26908;SDS011;14477;51.038;4.588;2023-03-23T16:27:42;4.95;;;1.70;;
26908;SDS011;14477;51.038;4.588;2023-03-23T16:32:38;6.03;;;1.97;;
26908;SDS011;14477;51.038;4.588;2023-03-23T16:35:04;3.35;;;1.45;;
26908;SDS011;14477;51.038;4.588;2023-03-23T16:37:30;4.72;;;1.45;;
26908;SDS011;14477;51.038;4.588;2023-03-23T16:39:58;4.57;;;1.40;;
26908;SDS011;14477;51.038;4.588;2023-03-23T16:42:24;2.78;;;1.55;;
26908;SDS011;14477;51.038;4.588;2023-03-23T16:44:50;3.72;;;1.40;;
26908;SDS011;14477;51.038;4.588;2023-03-23T16:47:16;4.73;;;1.37;;
26908;SDS011;14477;51.038;4.588;2023-03-23T16:49:49;3.08;;;1.40;;
26908;SDS011;14477;51.038;4.588;2023-03-23T16:52:18;5.03;;;1.42;;
26908;SDS011;14477;51.038;4.588;2023-03-23T16:54:44;3.55;;;1.20;;
26908;SDS011;14477;51.038;4.588;2023-03-23T16:57:10;4.00;;;1.10;;
26908;SDS011;14477;51.038;4.588;2023-03-23T16:59:36;3.45;;;1.40;;
26908;SDS011;14477;51.038;4.588;2023-03-23T17:02:02;3.50;;;1.30;;
26908;SDS011;14477;51.038;4.588;2023-03-23T17:04:29;4.57;;;1.33;;
26908;SDS011;14477;51.038;4.588;2023-03-23T17:06:55;3.08;;;1.40;;
26908;SDS011;14477;51.038;4.588;2023-03-23T17:09:23;4.05;;;1.58;;
26908;SDS011;14477;51.038;4.588;2023-03-23T17:11:50;5.20;;;1.53;;
26908;SDS011;14477;51.038;4.588;2023-03-23T17:14:16;4.28;;;1.60;;